createdAt,value
2023-04-01T00:00:05.507Z,6.25
2023-04-01T00:05:33.655Z,7.15
2023-04-01T00:10:58.745Z,6.75
2023-04-01T00:16:21.561Z,5.68
2023-04-01T00:21:43.908Z,6.15
2023-04-01T00:27:05.713Z,7.22
2023-04-01T00:32:26.994Z,6.32
2023-04-01T00:37:48.740Z,6.68
2023-04-01T00:43:27.973Z,7.00
2023-04-01T00:48:55.222Z,6.70
2023-04-01T00:54:19.288Z,6.82
2023-04-01T00:59:50.292Z,7.32
2023-04-01T01:05:20.130Z,6.53
2023-04-01T01:10:53.654Z,7.25
2023-04-01T01:16:31.099Z,6.95
2023-04-01T01:22:14.444Z,7.30
2023-04-01T01:27:40.338Z,7.30
2023-04-01T01:33:39.773Z,7.65
2023-04-01T01:39:09.135Z,7.43
2023-04-01T01:44:32.732Z,7.45
2023-04-01T01:49:55.770Z,8.10
2023-04-01T01:55:38.075Z,8.57
2023-04-01T02:01:07.339Z,7.50
2023-04-01T02:06:33.239Z,6.95
2023-04-01T02:12:07.238Z,6.80
2023-04-01T02:17:34.961Z,6.60
2023-04-01T02:22:59.430Z,6.65
2023-04-01T02:28:21.967Z,6.47
2023-04-01T02:33:44.674Z,6.33
2023-04-01T02:39:07.121Z,6.13
2023-04-01T02:44:28.439Z,7.05
2023-04-01T02:49:57.805Z,6.38
2023-04-01T02:55:28.238Z,7.07
2023-04-01T03:00:49.837Z,7.63
2023-04-01T03:06:14.486Z,7.75
2023-04-01T03:11:36.659Z,8.00
2023-04-01T03:16:58.259Z,8.35
2023-04-01T03:22:22.636Z,8.73
2023-04-01T03:27:44.193Z,9.80
2023-04-01T03:33:06.868Z,9.10
2023-04-01T03:38:30.816Z,10.45
2023-04-01T03:43:52.123Z,10.32
2023-04-01T03:49:16.754Z,10.15
2023-04-01T03:54:38.455Z,9.77
2023-04-01T03:59:59.908Z,9.75
2023-04-01T04:05:22.060Z,10.30
2023-04-01T04:10:48.259Z,10.35
2023-04-01T04:16:13.210Z,8.50
2023-04-01T04:21:42.151Z,7.60
2023-04-01T04:27:04.620Z,7.13
2023-04-01T04:32:30.126Z,7.20
2023-04-01T04:37:52.748Z,8.32
2023-04-01T04:43:19.143Z,8.88
2023-04-01T04:48:40.666Z,9.50
2023-04-01T04:54:08.531Z,9.80
2023-04-01T04:59:44.560Z,10.52
2023-04-01T05:05:09.762Z,10.93
2023-04-01T05:10:34.565Z,12.32
2023-04-01T05:15:56.456Z,11.45
2023-04-01T05:21:18.013Z,12.00
2023-04-01T05:26:39.490Z,11.13
2023-04-01T05:32:01.025Z,11.77
2023-04-01T05:37:23.256Z,10.70
2023-04-01T05:42:44.599Z,9.10
2023-04-01T05:48:06.702Z,9.82
2023-04-01T05:53:33.849Z,10.68
2023-04-01T05:58:55.603Z,9.25
2023-04-01T06:04:19.714Z,10.15
2023-04-01T06:09:41.961Z,9.10
2023-04-01T06:15:34.282Z,8.82
2023-04-01T06:21:41.890Z,10.10
2023-04-01T06:27:12.639Z,8.82
2023-04-01T06:33:08.212Z,9.13
2023-04-01T06:39:09.593Z,8.73
2023-04-01T06:45:03.057Z,7.95
2023-04-01T06:51:18.530Z,7.85
2023-04-01T07:02:42.886Z,7.32
2023-04-01T07:08:09.841Z,6.72
2023-04-01T07:13:53.750Z,6.43
2023-04-01T07:19:52.543Z,6.75
2023-04-01T07:25:37.518Z,6.50
2023-04-01T07:32:05.156Z,5.85
2023-04-01T07:38:10.034Z,5.80
2023-04-01T07:44:00.942Z,5.25
2023-04-01T07:49:42.484Z,5.40
2023-04-01T07:55:09.800Z,7.22
2023-04-01T08:00:57.779Z,7.72
2023-04-01T08:06:42.800Z,6.68
2023-04-01T08:12:18.435Z,6.20
2023-04-01T08:18:21.263Z,5.55
2023-04-01T08:23:53.322Z,5.78
2023-04-01T08:29:33.248Z,6.10
2023-04-01T08:35:31.710Z,6.07
2023-04-01T08:41:00.209Z,5.15
2023-04-01T08:47:10.658Z,5.32
2023-04-01T08:52:38.189Z,4.55
2023-04-01T08:58:45.881Z,5.38
2023-04-01T09:04:51.930Z,4.85
2023-04-01T09:10:54.708Z,5.10
2023-04-01T09:17:12.584Z,4.65
2023-04-01T09:23:03.776Z,4.70
2023-04-01T09:28:42.733Z,4.95
2023-04-01T09:34:48.987Z,4.43
2023-04-01T09:40:31.674Z,4.60
2023-04-01T09:46:24.781Z,5.65
2023-04-01T09:52:04.013Z,5.80
2023-04-01T09:58:02.686Z,6.07
2023-04-01T10:04:26.352Z,6.75
2023-04-01T10:09:54.073Z,5.70
2023-04-01T10:15:50.040Z,5.63
2023-04-01T10:21:23.861Z,3.40
2023-04-01T10:27:17.708Z,3.53
2023-04-01T10:34:14.813Z,3.80
2023-04-01T10:39:45.054Z,4.07
2023-04-01T10:45:30.695Z,4.05
2023-04-01T10:50:55.477Z,3.07
2023-04-01T11:02:59.352Z,3.08
2023-04-01T11:09:23.721Z,2.63
2023-04-01T11:16:05.633Z,2.70
2023-04-01T11:21:53.643Z,2.60
2023-04-01T11:27:59.565Z,2.22
2023-04-01T11:33:44.414Z,2.38
2023-04-01T11:39:34.844Z,2.50
2023-04-01T11:45:18.042Z,1.73
2023-04-01T11:51:19.098Z,1.95
2023-04-01T11:57:08.815Z,2.53
2023-04-01T12:03:02.527Z,2.28
2023-04-01T12:09:12.946Z,1.60
2023-04-01T12:15:08.150Z,2.00
2023-04-01T12:20:43.076Z,2.40
2023-04-01T12:31:43.233Z,2.30
2023-04-01T12:37:28.213Z,2.30
2023-04-01T12:43:13.514Z,2.50
2023-04-01T12:48:57.895Z,2.65
2023-04-01T12:54:30.723Z,3.10
2023-04-01T13:00:15.899Z,3.00
2023-04-01T13:06:09.379Z,2.90
2023-04-01T13:11:57.707Z,2.47
2023-04-01T13:17:39.666Z,2.53
2023-04-01T13:23:22.173Z,3.15
2023-04-01T13:29:19.335Z,2.95
2023-04-01T13:35:16.047Z,3.40
2023-04-01T13:41:25.008Z,3.28
2023-04-01T13:47:20.131Z,3.08
2023-04-01T13:52:53.609Z,3.22
2023-04-01T13:58:54.794Z,2.97
2023-04-01T14:04:49.193Z,2.95
2023-04-01T14:10:41.608Z,2.55
2023-04-01T14:16:27.983Z,2.75
2023-04-01T14:22:17.127Z,2.50
2023-04-01T14:27:52.550Z,2.22
2023-04-01T14:33:47.843Z,2.10
2023-04-01T14:39:55.719Z,2.00
2023-04-01T14:45:46.091Z,2.30
2023-04-01T14:51:31.189Z,2.40
2023-04-01T14:57:14.709Z,1.85
2023-04-01T15:03:24.026Z,2.10
2023-04-01T15:09:18.303Z,2.20
2023-04-01T15:15:17.124Z,2.08
2023-04-01T15:21:04.143Z,2.00
2023-04-01T15:27:15.141Z,1.90
2023-04-01T15:33:14.528Z,2.30
2023-04-01T15:38:54.069Z,2.10
2023-04-01T15:45:06.637Z,2.42
2023-04-01T15:51:18.146Z,2.00
2023-04-01T15:57:10.041Z,2.05
2023-04-01T16:02:54.551Z,2.15
2023-04-01T16:09:02.344Z,2.40
2023-04-01T16:14:53.601Z,2.08
2023-04-01T16:20:21.832Z,2.17
2023-04-01T16:25:58.810Z,2.47
2023-04-01T16:32:08.068Z,2.38
2023-04-01T16:38:05.010Z,3.00
2023-04-01T16:43:47.256Z,3.08
2023-04-01T16:49:52.746Z,3.17
2023-04-01T16:55:19.541Z,3.57
2023-04-01T17:00:51.264Z,3.55
2023-04-01T17:06:34.364Z,4.30
2023-04-01T17:12:25.152Z,4.15
2023-04-01T17:18:05.025Z,3.58
2023-04-01T17:23:59.182Z,4.25
2023-04-01T17:30:12.579Z,4.70
2023-04-01T17:35:53.870Z,5.00
2023-04-01T17:41:52.738Z,5.57
2023-04-01T17:47:53.358Z,4.72
2023-04-01T17:53:25.579Z,4.95
2023-04-01T17:59:29.872Z,5.68
2023-04-01T18:04:57.026Z,5.78
2023-04-01T18:10:52.699Z,5.47
2023-04-01T18:16:59.158Z,5.97
2023-04-01T18:22:42.784Z,5.57
2023-04-01T18:28:31.433Z,5.82
2023-04-01T18:34:19.794Z,5.88
2023-04-01T18:39:55.189Z,5.70
2023-04-01T18:45:27.258Z,5.75
2023-04-01T18:51:00.942Z,6.65
2023-04-01T18:56:39.347Z,5.63
2023-04-01T19:02:19.620Z,6.22
2023-04-01T19:07:43.242Z,6.65
2023-04-01T19:13:35.177Z,5.93
2023-04-01T19:19:31.161Z,5.97
2023-04-01T19:25:15.777Z,5.75
2023-04-01T19:30:59.222Z,5.47
2023-04-01T19:36:55.782Z,6.22
2023-04-01T19:42:44.663Z,5.82
2023-04-01T19:48:24.538Z,5.28
2023-04-01T19:54:21.432Z,6.13
2023-04-01T20:00:03.860Z,6.30
2023-04-01T20:05:56.295Z,6.70
2023-04-01T20:11:31.809Z,6.57
2023-04-01T20:17:09.016Z,6.93
2023-04-01T20:23:08.304Z,6.70
2023-04-01T20:28:49.875Z,6.40
2023-04-01T20:34:13.842Z,7.20
2023-04-01T20:40:27.751Z,6.80
2023-04-01T20:45:58.527Z,6.65
2023-04-01T20:51:32.716Z,6.95
2023-04-01T20:57:22.525Z,6.73
2023-04-01T21:03:22.848Z,6.53
2023-04-01T21:09:36.907Z,8.00
2023-04-01T21:15:39.862Z,6.25
2023-04-01T21:21:25.439Z,6.38
2023-04-01T21:27:04.762Z,6.65
2023-04-01T21:33:03.433Z,6.53
2023-04-01T21:38:59.162Z,7.35
2023-04-01T21:44:58.777Z,6.18
2023-04-01T21:51:27.561Z,6.40
2023-04-01T21:56:54.418Z,5.68
2023-04-01T22:03:06.005Z,6.13
2023-04-01T22:08:59.290Z,5.78
2023-04-01T22:14:43.321Z,5.43
2023-04-01T22:20:37.776Z,5.60
2023-04-01T22:26:28.415Z,5.47
2023-04-01T22:32:17.375Z,5.60
2023-04-01T22:38:10.840Z,5.88
2023-04-01T22:43:42.693Z,4.88
2023-04-01T22:49:20.646Z,4.55
2023-04-01T22:54:56.187Z,4.78
2023-04-01T23:00:29.036Z,4.38
2023-04-01T23:06:00.360Z,4.07
2023-04-01T23:11:32.403Z,3.97
2023-04-01T23:17:12.045Z,4.97
2023-04-01T23:23:20.453Z,4.82
2023-04-01T23:28:58.758Z,4.75
2023-04-01T23:34:33.565Z,4.22
2023-04-01T23:40:00.811Z,4.30
2023-04-01T23:45:22.499Z,4.53
2023-04-01T23:50:44.211Z,4.25
2023-04-01T23:56:06.090Z,5.65
